Time;durP1;ratioP1;P1;durP2;ratioP2;P2;SDS_P1;SDS_P2;PMS_P1;PMS_P2;Temp;Humidity;BMP_temperature;BMP_pressure;BME280_temperature;BME280_humidity;BME280_pressure;Samples;Min_cycle;Max_cycle;Signal;HPM_P1;HPM_P2
2023/11/03 00:00:35;;;;;;;3.92;0.70;;;;;;;10.19;80.03;97527.38;5038490;28;20087;-77
2023/11/03 00:03:05;;;;;;;7.45;1.10;;;;;;;10.19;79.34;97530.84;5029639;28;20049;-77
2023/11/03 00:05:35;;;;;;;0.60;0.38;;;;;;;10.16;79.33;97538.03;5037638;28;20528;-80
2023/11/03 00:08:03;;;;;;;4.47;1.45;;;;;;;10.10;79.60;97544.44;5036457;28;20817;-82
2023/11/03 00:10:30;;;;;;;2.67;0.70;;;;;;;10.06;80.29;97548.16;5010069;28;20045;-79
2023/11/03 00:12:57;;;;;;;2.53;1.50;;;;;;;10.02;80.53;97551.88;5038676;28;20138;-80
2023/11/03 00:15:23;;;;;;;4.50;0.52;;;;;;;9.98;80.59;97558.22;5043481;28;20483;-77
2023/11/03 00:17:51;;;;;;;3.50;0.73;;;;;;;9.97;80.93;97553.91;5050130;28;20044;-83
2023/11/03 00:20:18;;;;;;;2.25;0.57;;;;;;;9.96;80.67;97555.69;5037528;28;20340;-78
2023/11/03 00:22:46;;;;;;;3.92;0.60;;;;;;;9.91;80.89;97548.09;5036402;28;20037;-80
2023/11/03 00:25:14;;;;;;;2.67;1.25;;;;;;;9.87;81.29;97554.44;5043074;28;20055;-80
2023/11/03 00:27:42;;;;;;;1.95;0.57;;;;;;;9.84;81.71;97556.34;5055987;28;20056;-78
2023/11/03 00:30:10;;;;;;;1.95;0.50;;;;;;;9.82;81.89;97556.44;5038382;28;20114;-81
2023/11/03 00:32:37;;;;;;;2.30;0.88;;;;;;;9.79;81.85;97567.09;5041211;28;20559;-77
2023/11/03 00:35:08;;;;;;;0.82;0.52;;;;;;;9.74;81.93;97569.09;5039020;28;20041;-84
2023/11/03 00:37:36;;;;;;;3.58;0.73;;;;;;;9.69;82.36;97574.56;5030595;28;20068;-78
2023/11/03 00:40:07;;;;;;;6.07;1.45;;;;;;;9.68;82.80;97572.03;5038885;28;20044;-79
2023/11/03 00:42:34;;;;;;;2.92;0.80;;;;;;;9.64;82.39;97566.16;5043474;28;20051;-80
2023/11/03 00:45:00;;;;;;;4.38;0.80;;;;;;;9.61;83.49;97574.16;5045178;28;20052;-78
2023/11/03 00:47:27;;;;;;;1.05;0.60;;;;;;;9.62;83.18;97569.75;5051027;28;20459;-80
2023/11/03 00:49:54;;;;;;;2.67;0.82;;;;;;;9.57;83.84;97564.81;5025533;28;20060;-85
2023/11/03 00:52:20;;;;;;;5.63;1.05;;;;;;;9.55;83.72;97557.03;5043422;28;20040;-77
2023/11/03 00:54:47;;;;;;;3.35;0.75;;;;;;;9.51;83.89;97546.84;5047258;28;20081;-78
2023/11/03 00:57:13;;;;;;;4.22;1.23;;;;;;;9.50;84.44;97542.56;5040280;28;21322;-76
2023/11/03 00:59:40;;;;;;;4.85;0.52;;;;;;;9.50;83.81;97538.16;5046768;28;20056;-80
2023/11/03 01:02:07;;;;;;;0.52;0.40;;;;;;;9.51;83.56;97524.19;5034683;28;20045;-79
2023/11/03 01:04:34;;;;;;;0.85;0.50;;;;;;;9.46;84.01;97515.75;5040348;28;20353;-81
2023/11/03 01:07:04;;;;;;;4.45;0.88;;;;;;;9.44;83.76;97507.19;5037539;28;20075;-76
2023/11/03 01:09:31;;;;;;;4.88;2.13;;;;;;;9.47;83.05;97504.41;5038742;28;20329;-81
2023/11/03 01:11:58;;;;;;;5.32;0.90;;;;;;;9.45;82.85;97506.25;5038687;28;20141;-78
2023/11/03 01:14:24;;;;;;;3.40;0.50;;;;;;;9.42;83.18;97512.47;5043265;28;20052;-80
2023/11/03 01:16:51;;;;;;;3.95;0.85;;;;;;;9.47;82.57;97514.00;5042245;28;20059;-77
2023/11/03 01:19:20;;;;;;;2.38;0.70;;;;;;;9.48;82.63;97515.66;5030283;28;20045;-76
2023/11/03 01:21:48;;;;;;;2.25;0.70;;;;;;;9.47;82.20;97524.47;5025260;28;20053;-80
2023/11/03 01:24:14;;;;;;;2.47;0.60;;;;;;;9.47;81.97;97534.91;5042601;28;20045;-79
2023/11/03 01:26:43;;;;;;;3.78;1.30;;;;;;;9.42;81.64;97532.53;5043381;28;20103;-79
2023/11/03 01:29:13;;;;;;;0.60;0.40;;;;;;;9.39;82.21;97530.09;5039633;28;20048;-80
2023/11/03 01:31:39;;;;;;;6.43;1.48;;;;;;;9.37;82.27;97529.31;5053325;28;20305;-77
2023/11/03 01:34:06;;;;;;;5.15;1.00;;;;;;;9.34;81.78;97529.50;5035918;28;20048;-79
2023/11/03 01:36:35;;;;;;;1.88;0.70;;;;;;;9.29;82.20;97534.94;5038808;28;20071;-81
2023/11/03 01:39:05;;;;;;;4.25;1.15;;;;;;;9.29;82.22;97524.50;5036503;28;20112;-77
2023/11/03 01:41:32;;;;;;;4.88;0.73;;;;;;;9.26;81.91;97519.47;5040559;28;20094;-78
2023/11/03 01:44:12;;;;;;;3.65;0.60;;;;;;;9.20;81.59;97525.84;5042532;28;20052;-80
2023/11/03 01:46:41;;;;;;;2.55;0.85;;;;;;;9.18;81.35;97516.44;5033606;28;20052;-79
2023/11/03 01:49:11;;;;;;;2.33;0.65;;;;;;;9.13;81.83;97518.44;5037865;28;20049;-80
2023/11/03 01:51:39;;;;;;;5.78;0.90;;;;;;;9.11;82.01;97526.34;5034254;28;20057;-82
2023/11/03 01:54:07;;;;;;;3.40;1.35;;;;;;;9.10;81.57;97533.34;5034001;28;20057;-79
2023/11/03 01:56:37;;;;;;;2.70;0.57;;;;;;;9.06;81.74;97537.03;5043931;28;20040;-80
2023/11/03 01:59:08;;;;;;;4.72;0.77;;;;;;;9.02;81.91;97540.72;5041383;28;20437;-79
2023/11/03 02:01:37;;;;;;;1.65;0.82;;;;;;;9.01;81.83;97535.56;5037360;28;20045;-81
2023/11/03 02:04:04;;;;;;;11.07;1.15;;;;;;;8.94;81.86;97533.31;5043962;28;20071;-78
2023/11/03 02:06:31;;;;;;;2.03;0.73;;;;;;;8.91;82.41;97538.66;5038359;28;20563;-78
2023/11/03 02:08:57;;;;;;;10.35;2.58;;;;;;;8.92;82.09;97556.00;5034730;28;20134;-79
2023/11/03 02:11:29;;;;;;;4.68;0.47;;;;;;;8.92;81.65;97558.63;5036990;28;20040;-78
2023/11/03 02:13:58;;;;;;;4.93;0.77;;;;;;;8.89;82.07;97552.72;5041887;28;20728;-85
2023/11/03 02:16:25;;;;;;;4.00;1.23;;;;;;;8.88;81.53;97559.72;5020849;28;20153;-76
2023/11/03 02:18:52;;;;;;;4.55;0.85;;;;;;;8.89;81.87;97560.53;5036539;28;20037;-77
2023/11/03 02:21:19;;;;;;;3.53;0.88;;;;;;;8.84;81.68;97563.41;5045055;28;20574;-82
2023/11/03 02:23:47;;;;;;;2.67;0.60;;;;;;;8.85;81.72;97575.53;5033983;28;20114;-81
2023/11/03 02:26:13;;;;;;;2.28;1.10;;;;;;;8.80;81.26;97572.31;5040951;28;20566;-77
2023/11/03 02:28:40;;;;;;;5.15;1.17;;;;;;;8.81;81.46;97575.75;5046499;28;20063;-77
2023/11/03 02:31:07;;;;;;;6.28;1.23;;;;;;;8.82;81.00;97585.28;5045393;28;20057;-78
2023/11/03 02:33:33;;;;;;;1.88;0.85;;;;;;;8.80;81.01;97580.13;5047566;28;20048;-77
2023/11/03 02:36:00;;;;;;;7.85;1.38;;;;;;;8.74;81.45;97578.66;5048913;28;20512;-81
2023/11/03 02:38:27;;;;;;;6.57;1.35;;;;;;;8.75;81.25;97569.09;5044492;28;20476;-80
2023/11/03 02:40:55;;;;;;;3.33;1.38;;;;;;;8.72;81.48;97561.41;5037902;28;20079;-77
2023/11/03 02:43:23;;;;;;;5.47;1.15;;;;;;;8.68;81.41;97554.66;5045685;28;20037;-77
2023/11/03 02:45:49;;;;;;;3.10;1.55;;;;;;;8.69;81.24;97553.75;5029099;28;20135;-78
2023/11/03 02:48:17;;;;;;;5.55;0.82;;;;;;;8.65;81.10;97553.06;5039536;28;20052;-77
2023/11/03 02:50:43;;;;;;;9.05;1.38;;;;;;;8.66;81.46;97556.53;5038949;28;20120;-78
2023/11/03 02:53:11;;;;;;;8.10;2.17;;;;;;;8.68;81.11;97552.06;5026986;28;20052;-77
2023/11/03 02:55:37;;;;;;;4.05;2.38;;;;;;;8.67;81.37;97556.44;5046421;28;20045;-78
2023/11/03 02:58:04;;;;;;;6.20;1.95;;;;;;;8.71;81.07;97555.38;5027567;28;20102;-77
2023/11/03 03:00:31;;;;;;;3.20;1.48;;;;;;;8.66;81.08;97553.91;5043358;28;20091;-80
2023/11/03 03:03:01;;;;;;;8.30;1.38;;;;;;;8.62;81.21;97561.06;5039795;28;20071;-80
2023/11/03 03:05:27;;;;;;;11.93;1.75;;;;;;;8.57;82.07;97561.28;5030941;28;20383;-80
2023/11/03 03:07:54;;;;;;;3.88;1.00;;;;;;;8.57;82.27;97568.25;5043517;28;20059;-77
2023/11/03 03:10:21;;;;;;;1.33;0.70;;;;;;;8.55;81.81;97568.34;5044337;28;20083;-78
2023/11/03 03:12:48;;;;;;;4.43;0.73;;;;;;;8.57;82.03;97566.47;5042826;28;20132;-77
2023/11/03 03:15:15;;;;;;;3.03;1.50;;;;;;;8.58;82.02;97562.97;5025588;28;20081;-77
2023/11/03 03:17:42;;;;;;;3.67;1.15;;;;;;;8.60;81.93;97573.31;5047147;28;20048;-77
2023/11/03 03:20:09;;;;;;;6.68;1.35;;;;;;;8.61;81.79;97568.00;5045751;28;20068;-77
2023/11/03 03:22:35;;;;;;;3.97;1.08;;;;;;;8.64;81.97;97577.44;5025762;28;20388;-81
2023/11/03 03:25:02;;;;;;;5.43;1.48;;;;;;;8.63;81.45;97573.19;5047359;28;20053;-77
2023/11/03 03:27:29;;;;;;;5.85;1.23;;;;;;;8.63;81.78;97575.78;5046433;28;20047;-77
2023/11/03 03:29:56;;;;;;;2.08;0.57;;;;;;;8.63;82.08;97569.72;5041513;28;20817;-79
2023/11/03 03:32:22;;;;;;;5.35;0.90;;;;;;;8.61;82.19;97548.94;5040704;28;20036;-77
2023/11/03 03:34:49;;;;;;;5.65;1.25;;;;;;;8.54;82.27;97558.84;5041247;28;20037;-75
2023/11/03 03:37:15;;;;;;;3.97;1.08;;;;;;;8.51;83.10;97558.97;5041734;28;20044;-77
2023/11/03 03:39:45;;;;;;;3.63;1.48;;;;;;;8.48;83.15;97558.31;5051632;28;20051;-79
2023/11/03 03:42:14;;;;;;;2.50;1.23;;;;;;;8.43;83.56;97558.47;5041686;28;20440;-80
2023/11/03 03:44:44;;;;;;;6.70;1.17;;;;;;;8.39;83.92;97562.16;5046649;28;20067;-79
2023/11/03 03:47:11;;;;;;;2.65;0.57;;;;;;;8.41;83.66;97550.75;5040403;28;20446;-79
2023/11/03 03:49:38;;;;;;;1.17;0.68;;;;;;;8.42;83.26;97548.97;5045063;28;20493;-77
2023/11/03 03:52:06;;;;;;;4.35;0.73;;;;;;;8.38;84.15;97539.63;5037784;28;20057;-79
2023/11/03 03:54:34;;;;;;;8.43;1.10;;;;;;;8.38;83.83;97531.81;5023139;28;20470;-77
2023/11/03 03:57:01;;;;;;;2.75;0.80;;;;;;;8.35;83.99;97527.59;5047062;28;20045;-85
2023/11/03 03:59:29;;;;;;;5.93;1.20;;;;;;;8.33;83.67;97521.63;5050586;28;20140;-82
2023/11/03 04:01:55;;;;;;;4.60;0.85;;;;;;;8.41;83.00;97511.66;5043206;28;20051;-79
2023/11/03 04:04:22;;;;;;;4.82;0.90;;;;;;;8.40;83.30;97509.13;5043248;28;20119;-78
2023/11/03 04:06:48;;;;;;;1.90;0.85;;;;;;;8.38;83.46;97519.63;5044031;28;20489;-79
2023/11/03 04:09:15;;;;;;;3.72;0.77;;;;;;;8.39;82.98;97507.44;5046483;28;20039;-80
2023/11/03 04:11:42;;;;;;;6.47;0.60;;;;;;;8.42;82.61;97520.31;5043722;28;20067;-77
2023/11/03 04:14:08;;;;;;;9.65;1.52;;;;;;;8.42;82.89;97528.13;5023502;28;20069;-81
2023/11/03 04:16:39;;;;;;;5.85;0.77;;;;;;;8.44;82.28;97534.13;5035490;28;20057;-80
2023/11/03 04:19:05;;;;;;;10.50;3.15;;;;;;;8.41;82.61;97535.09;5024486;28;20064;-77
2023/11/03 04:21:32;;;;;;;5.80;1.33;;;;;;;8.39;83.20;97534.31;5024283;28;20049;-77
2023/11/03 04:24:02;;;;;;;8.43;1.55;;;;;;;8.36;83.12;97537.09;5044283;28;20063;-84
2023/11/03 04:26:28;;;;;;;5.72;0.95;;;;;;;8.26;83.16;97536.69;5057387;28;20477;-78
2023/11/03 04:28:57;;;;;;;5.53;1.65;;;;;;;8.20;84.15;97549.19;5042472;28;20140;-77
2023/11/03 04:31:23;;;;;;;6.53;1.02;;;;;;;8.24;83.51;97545.53;5042172;28;20045;-77
2023/11/03 04:33:52;;;;;;;7.47;0.80;;;;;;;8.26;83.93;97552.34;5044293;28;20516;-76
2023/11/03 04:36:19;;;;;;;4.75;0.90;;;;;;;8.24;83.94;97548.16;5037040;28;20052;-79
2023/11/03 04:38:46;;;;;;;7.40;2.00;;;;;;;8.29;83.45;97556.56;5027106;28;20076;-79
2023/11/03 04:41:13;;;;;;;3.47;0.82;;;;;;;8.24;84.30;97562.00;5045268;28;20047;-79
2023/11/03 04:43:41;;;;;;;3.28;0.85;;;;;;;8.30;84.19;97566.06;5040892;28;20049;-77
2023/11/03 04:46:08;;;;;;;4.57;0.82;;;;;;;8.32;83.95;97568.59;5042067;28;20137;-77
2023/11/03 04:48:37;;;;;;;3.30;2.08;;;;;;;8.28;83.81;97566.16;5040877;28;20149;-83
2023/11/03 04:51:04;;;;;;;5.22;1.15;;;;;;;8.24;84.30;97561.19;5006796;28;20045;-78
2023/11/03 04:53:31;;;;;;;6.35;1.63;;;;;;;8.24;84.46;97562.00;5035835;28;20044;-79
2023/11/03 04:55:57;;;;;;;7.38;1.08;;;;;;;8.24;84.40;97563.78;5040414;28;20453;-78
2023/11/03 04:58:24;;;;;;;3.30;0.85;;;;;;;8.20;84.70;97570.91;5026467;28;20061;-78
2023/11/03 05:00:51;;;;;;;4.43;1.10;;;;;;;8.17;85.14;97565.81;5022084;28;20515;-77
2023/11/03 05:03:19;;;;;;;9.38;0.90;;;;;;;8.11;85.56;97564.38;5039341;28;20048;-77
2023/11/03 05:05:46;;;;;;;3.70;0.82;;;;;;;8.11;86.10;97572.19;5042991;28;20040;-77
2023/11/03 05:08:14;;;;;;;3.88;1.17;;;;;;;8.04;86.91;97576.00;5023844;28;20120;-83
2023/11/03 05:10:44;;;;;;;9.80;1.15;;;;;;;7.99;87.69;97578.00;5035538;28;20049;-78
2023/11/03 05:13:11;;;;;;;2.13;0.90;;;;;;;7.94;88.21;97573.00;5022495;28;20053;-83
2023/11/03 05:15:39;;;;;;;8.57;1.45;;;;;;;7.96;88.23;97572.91;5034357;28;20056;-79
2023/11/03 05:18:06;;;;;;;2.60;0.85;;;;;;;7.94;88.42;97566.97;5035614;28;20033;-81
2023/11/03 05:20:32;;;;;;;5.70;2.05;;;;;;;7.90;88.79;97563.66;5040057;28;20132;-80
2023/11/03 05:22:59;;;;;;;6.80;1.13;;;;;;;7.90;89.72;97568.00;5039584;28;20048;-78
2023/11/03 05:25:26;;;;;;;5.10;0.70;;;;;;;7.90;89.48;97563.66;5039246;28;20055;-79
2023/11/03 05:27:52;;;;;;;10.63;1.70;;;;;;;7.93;89.49;97562.66;5039875;28;20037;-80
2023/11/03 05:30:19;;;;;;;7.68;1.77;;;;;;;7.90;89.91;97563.66;5015306;28;20323;-77
2023/11/03 05:32:48;;;;;;;4.88;0.55;;;;;;;7.91;89.76;97567.09;5042374;28;20095;-79
2023/11/03 05:35:15;;;;;;;8.27;1.50;;;;;;;7.90;89.90;97575.81;5035849;28;20147;-80
2023/11/03 05:37:41;;;;;;;5.97;1.10;;;;;;;7.88;90.11;97573.28;5041227;28;20052;-78
2023/11/03 05:40:11;;;;;;;4.88;0.90;;;;;;;7.88;90.42;97569.84;5037863;28;20132;-81
2023/11/03 05:42:39;;;;;;;2.38;0.70;;;;;;;7.89;90.80;97574.16;5037793;28;20044;-77
2023/11/03 05:45:08;;;;;;;3.30;1.00;;;;;;;7.87;90.29;97571.59;5038381;28;20102;-84
2023/11/03 05:47:35;;;;;;;4.75;1.17;;;;;;;7.88;90.57;97581.09;5041253;28;20045;-80
2023/11/03 05:50:03;;;;;;;3.45;1.15;;;;;;;7.89;90.59;97574.97;5040739;28;20463;-78
2023/11/03 05:52:34;;;;;;;7.03;1.95;;;;;;;7.94;90.69;97573.00;5030928;28;20044;-78
2023/11/03 05:55:00;;;;;;;4.13;1.25;;;;;;;7.99;90.34;97583.22;5026055;28;20043;-81
2023/11/03 05:57:27;;;;;;;2.60;1.40;;;;;;;8.03;90.43;97587.34;5042755;28;20121;-80
2023/11/03 05:59:53;;;;;;;4.53;2.10;;;;;;;8.04;89.96;97582.97;5020093;28;20273;-78
2023/11/03 06:02:22;;;;;;;2.72;1.08;;;;;;;8.04;90.05;97589.00;5041493;28;20064;-79
2023/11/03 06:04:49;;;;;;;5.30;1.00;;;;;;;8.08;89.76;97593.19;5040500;28;20122;-77
2023/11/03 06:07:17;;;;;;;4.00;0.95;;;;;;;8.10;89.82;97595.72;5040955;28;20106;-78
2023/11/03 06:09:43;;;;;;;4.60;0.93;;;;;;;8.14;89.54;97588.59;5042175;28;20413;-79
2023/11/03 06:12:13;;;;;;;5.43;0.70;;;;;;;8.19;89.26;97600.47;5047436;28;20495;-77
2023/11/03 06:14:39;;;;;;;4.43;0.60;;;;;;;8.25;88.84;97601.94;5053546;28;20497;-79
2023/11/03 06:17:06;;;;;;;4.05;1.30;;;;;;;8.35;88.76;97611.00;5046056;28;20045;-85
2023/11/03 06:19:33;;;;;;;6.53;0.90;;;;;;;8.44;87.82;97609.72;5032477;28;20079;-79
2023/11/03 06:22:00;;;;;;;5.20;0.80;;;;;;;8.54;87.61;97615.31;5053017;28;20041;-78
2023/11/03 06:24:26;;;;;;;2.10;0.98;;;;;;;8.61;86.91;97616.72;5046136;28;20080;-80
2023/11/03 06:26:58;;;;;;;7.22;1.15;;;;;;;8.66;86.43;97619.94;5040445;28;20124;-82
2023/11/03 06:29:26;;;;;;;1.40;0.63;;;;;;;8.72;85.29;97624.00;5042563;28;20557;-78
2023/11/03 06:31:52;;;;;;;3.40;1.08;;;;;;;8.81;85.12;97627.91;5041799;28;20055;-77
2023/11/03 06:34:19;;;;;;;2.67;0.90;;;;;;;8.86;85.16;97625.94;5049287;28;20575;-78
2023/11/03 06:36:46;;;;;;;5.20;0.80;;;;;;;8.90;84.90;97633.53;5047050;28;20075;-79
2023/11/03 06:39:20;;;;;;;4.50;0.90;;;;;;;8.96;84.69;97640.19;5046745;28;20052;-77
2023/11/03 06:41:46;;;;;;;;;;;;;;;9.00;83.75;97646.94;5030064;28;20052;-77
2023/11/03 06:44:13;;;;;;;3.03;1.17;;;;;;;9.05;84.15;97647.53;5041728;28;20033;-76
2023/11/03 06:46:41;;;;;;;2.47;0.75;;;;;;;9.09;83.98;97640.41;5043960;28;20060;-79
2023/11/03 06:49:08;;;;;;;2.47;0.77;;;;;;;9.15;83.82;97644.47;5043046;28;20041;-85
2023/11/03 06:51:38;;;;;;;9.50;1.17;;;;;;;9.16;83.51;97644.38;5046793;28;20049;-80
2023/11/03 06:54:05;;;;;;;7.95;1.05;;;;;;;9.18;83.12;97621.66;5046544;28;20548;-82
2023/11/03 06:56:37;;;;;;;5.20;1.05;;;;;;;9.22;82.95;97630.19;5046895;28;20097;-77
2023/11/03 06:59:06;;;;;;;2.85;0.57;;;;;;;9.23;82.12;97635.31;5028964;28;20044;-76
2023/11/03 07:01:33;;;;;;;2.88;1.00;;;;;;;9.29;82.00;97631.53;5047273;28;20129;-76
2023/11/03 07:04:00;;;;;;;4.72;1.05;;;;;;;9.37;81.13;97634.59;5032548;28;20047;-78
2023/11/03 07:06:27;;;;;;;5.68;0.85;;;;;;;9.44;79.98;97640.34;5044299;28;20037;-83
2023/11/03 07:08:54;;;;;;;3.53;0.73;;;;;;;9.51;79.12;97646.09;5045809;28;20225;-76
2023/11/03 07:11:24;;;;;;;2.35;0.55;;;;;;;9.55;79.15;97643.22;5042023;28;20132;-80
2023/11/03 07:13:51;;;;;;;1.02;0.70;;;;;;;9.63;79.51;97645.41;5025402;28;20695;-80
2023/11/03 07:16:18;;;;;;;0.95;0.45;;;;;;;9.66;78.36;97652.25;5045072;28;20067;-80
2023/11/03 07:18:44;;;;;;;4.65;0.85;;;;;;;9.69;78.06;97652.94;5040212;28;20120;-78
2023/11/03 07:21:12;;;;;;;2.10;0.40;;;;;;;9.73;78.10;97657.06;5028159;28;20056;-78
2023/11/03 07:23:40;;;;;;;2.78;0.60;;;;;;;9.78;77.66;97659.44;5040140;28;20529;-80
2023/11/03 07:26:06;;;;;;;2.05;1.40;;;;;;;9.78;77.75;97664.66;5023341;28;20067;-80
2023/11/03 07:28:33;;;;;;;4.13;0.60;;;;;;;9.85;78.16;97670.41;5042681;28;20091;-77
2023/11/03 07:31:03;;;;;;;4.05;0.63;;;;;;;9.85;77.07;97673.84;5025816;28;20041;-80
2023/11/03 07:33:30;;;;;;;2.75;1.27;;;;;;;9.88;77.49;97680.66;5045306;28;20045;-82
2023/11/03 07:35:56;;;;;;;2.13;0.57;;;;;;;9.86;77.25;97682.53;5042426;28;20055;-79
2023/11/03 07:38:23;;;;;;;3.40;1.58;;;;;;;9.86;76.35;97682.53;5041027;28;20069;-78
2023/11/03 07:40:50;;;;;;;5.25;1.33;;;;;;;9.86;76.58;97672.91;5040363;28;20051;-77
2023/11/03 07:43:16;;;;;;;6.40;1.73;;;;;;;9.93;75.55;97684.75;5039293;28;20159;-78
2023/11/03 07:45:44;;;;;;;3.83;0.85;;;;;;;9.96;76.00;97691.56;5038822;28;20041;-83
2023/11/03 07:48:13;;;;;;;7.55;1.52;;;;;;;9.96;75.43;97698.53;5037679;28;20063;-86
2023/11/03 07:50:39;;;;;;;2.05;0.60;;;;;;;9.97;75.40;97708.09;5041920;28;20083;-81
2023/11/03 07:53:07;;;;;;;2.72;1.10;;;;;;;10.04;74.97;97712.06;5061247;28;20089;-84
2023/11/03 07:55:35;;;;;;;2.00;0.82;;;;;;;10.04;75.37;97728.56;5043410;28;20182;-78
2023/11/03 07:58:04;;;;;;;4.35;0.93;;;;;;;10.01;75.64;97731.38;5040397;28;20132;-80
2023/11/03 08:00:30;;;;;;;1.55;0.85;;;;;;;10.06;75.68;97738.94;5041362;28;20102;-80
2023/11/03 08:03:00;;;;;;;5.32;1.08;;;;;;;10.04;75.33;97739.03;5045049;28;20087;-78
2023/11/03 08:05:30;;;;;;;1.17;0.65;;;;;;;10.07;75.80;97745.88;5056453;28;20041;-80
2023/11/03 08:08:01;;;;;;;3.05;0.90;;;;;;;10.04;75.92;97748.66;5024889;28;20366;-78
2023/11/03 08:10:28;;;;;;;4.72;0.98;;;;;;;10.03;75.83;97734.72;5044554;28;20125;-79
2023/11/03 08:12:57;;;;;;;3.55;0.93;;;;;;;10.07;75.59;97744.06;5048814;28;20069;-83
2023/11/03 08:15:24;;;;;;;2.97;1.05;;;;;;;10.05;74.69;97750.31;5036047;28;20029;-80
2023/11/03 08:17:50;;;;;;;6.68;1.05;;;;;;;10.10;75.19;97740.47;5043432;28;20103;-78
2023/11/03 08:20:18;;;;;;;5.78;0.85;;;;;;;10.15;75.31;97741.06;5019765;28;20049;-78
2023/11/03 08:22:47;;;;;;;1.85;0.80;;;;;;;10.20;75.66;97736.41;5040495;28;20051;-78
2023/11/03 08:25:13;;;;;;;3.00;0.98;;;;;;;10.26;74.99;97737.88;5028054;28;20045;-77
2023/11/03 08:27:40;;;;;;;1.52;0.77;;;;;;;10.24;75.02;97737.94;5048821;28;20045;-77
2023/11/03 08:30:08;;;;;;;3.55;0.60;;;;;;;10.21;74.56;97739.91;5042718;28;20041;-79
2023/11/03 08:32:39;;;;;;;6.28;1.20;;;;;;;10.22;74.65;97739.81;5042478;28;20045;-80
2023/11/03 08:35:07;;;;;;;5.80;0.63;;;;;;;10.31;74.36;97745.47;5044800;28;20049;-78
2023/11/03 08:37:37;;;;;;;1.95;0.90;;;;;;;10.32;73.79;97744.53;5042256;28;20080;-80
2023/11/03 08:40:05;;;;;;;5.05;1.20;;;;;;;10.45;72.78;97747.34;5043287;28;20554;-79
2023/11/03 08:42:35;;;;;;;4.20;0.60;;;;;;;10.57;71.69;97728.34;5044495;28;21118;-81
2023/11/03 08:45:03;;;;;;;1.70;0.52;;;;;;;10.66;71.06;97734.84;5059320;28;20833;-77
2023/11/03 08:47:33;;;;;;;1.17;0.82;;;;;;;10.59;71.28;97744.81;5039923;28;20164;-78
2023/11/03 08:49:59;;;;;;;8.38;1.58;;;;;;;10.65;71.78;97746.22;5045239;28;20068;-79
2023/11/03 08:52:26;;;;;;;5.25;1.40;;;;;;;10.70;71.75;97749.44;5044213;28;20130;-83
2023/11/03 08:54:52;;;;;;;5.22;0.88;;;;;;;10.75;70.69;97760.50;5044903;28;20117;-78
2023/11/03 08:57:21;;;;;;;5.97;1.00;;;;;;;10.73;71.04;97755.34;5041706;28;20480;-79
2023/11/03 08:59:48;;;;;;;4.32;0.93;;;;;;;10.88;70.88;97765.88;5023060;28;20152;-82
2023/11/03 09:02:15;;;;;;;3.03;0.90;;;;;;;10.88;70.50;97773.72;5038354;28;20128;-78
2023/11/03 09:04:41;;;;;;;4.68;0.60;;;;;;;10.96;70.88;97781.16;5042710;28;20049;-79
2023/11/03 09:07:09;;;;;;;4.45;0.95;;;;;;;10.96;70.90;97789.84;5040570;28;20136;-81
2023/11/03 09:09:36;;;;;;;1.13;0.77;;;;;;;11.04;70.21;97792.00;5033394;28;20050;-79
2023/11/03 09:12:06;;;;;;;2.42;0.90;;;;;;;10.93;70.10;97785.63;5035206;28;20518;-80
2023/11/03 09:14:36;;;;;;;6.22;0.93;;;;;;;11.11;69.82;97785.50;5040834;28;20047;-77
2023/11/03 09:17:02;;;;;;;6.05;1.52;;;;;;;11.08;70.39;97785.66;5040446;28;20048;-84
2023/11/03 09:19:29;;;;;;;2.35;0.40;;;;;;;11.16;69.01;97788.72;5020527;28;20139;-80
2023/11/03 09:21:55;;;;;;;3.53;0.82;;;;;;;11.20;69.25;97784.97;5038027;28;20048;-81
2023/11/03 09:24:22;;;;;;;4.63;1.02;;;;;;;11.16;69.44;97788.72;5038218;28;20052;-83
2023/11/03 09:26:49;;;;;;;4.05;0.80;;;;;;;11.20;70.00;97786.78;5027342;28;20049;-77
2023/11/03 09:29:16;;;;;;;5.05;1.02;;;;;;;11.14;69.50;97792.34;5041530;28;20045;-78
2023/11/03 09:31:43;;;;;;;12.52;1.83;;;;;;;11.07;69.92;97791.88;5041365;28;20036;-77
2023/11/03 09:34:09;;;;;;;1.58;0.98;;;;;;;10.99;70.30;97791.44;5040971;28;20037;-79
2023/11/03 09:36:38;;;;;;;1.50;0.95;;;;;;;11.02;70.35;97793.91;5044174;28;20048;-78
2023/11/03 09:39:05;;;;;;;2.80;0.68;;;;;;;10.96;71.02;97797.69;5022378;28;20048;-80
2023/11/03 09:41:47;;;;;;;3.33;0.73;;;;;;;10.86;71.18;97796.50;5031878;28;20117;-78
2023/11/03 09:44:17;;;;;;;4.82;0.80;;;;;;;10.90;70.14;97798.06;5025974;28;20067;-78
2023/11/03 09:46:43;;;;;;;4.63;1.63;;;;;;;10.83;70.27;97802.75;5040791;28;20040;-78
2023/11/03 09:49:10;;;;;;;2.58;1.15;;;;;;;10.90;70.46;97813.75;5042381;28;20095;-77
2023/11/03 09:51:48;;;;;;;3.42;1.27;;;;;;;10.89;70.38;97815.50;5036612;28;20044;-77
2023/11/03 09:54:15;;;;;;;2.70;0.88;;;;;;;10.95;69.92;97823.94;5041222;28;20044;-80
2023/11/03 09:56:46;;;;;;;3.97;0.70;;;;;;;10.90;69.88;97808.53;5040524;28;20099;-81
2023/11/03 09:59:17;;;;;;;3.38;0.77;;;;;;;10.92;70.08;97811.88;5037663;28;20051;-80
2023/11/03 10:01:44;;;;;;;2.70;0.70;;;;;;;10.92;70.20;97817.13;5040947;28;20036;-81
2023/11/03 10:04:11;;;;;;;2.85;0.77;;;;;;;10.91;70.02;97808.44;5039047;28;20056;-78
2023/11/03 10:06:38;;;;;;;6.40;0.70;;;;;;;10.97;69.97;97804.63;5025159;28;20115;-83
2023/11/03 10:09:06;;;;;;;8.55;1.48;;;;;;;11.00;70.20;97804.47;5049241;28;20117;-84
2023/11/03 10:11:35;;;;;;;5.63;0.93;;;;;;;10.95;70.46;97803.00;5044457;28;20319;-82
2023/11/03 10:14:02;;;;;;;3.00;1.40;;;;;;;10.91;70.05;97800.56;5033517;28;20075;-79
2023/11/03 10:16:29;;;;;;;4.30;0.77;;;;;;;10.85;69.94;97798.28;5046441;28;20047;-80
2023/11/03 10:18:57;;;;;;;3.33;0.80;;;;;;;10.83;69.11;97800.16;5045623;28;20037;-80
2023/11/03 10:21:24;;;;;;;6.50;1.50;;;;;;;10.91;69.39;97811.03;5038854;28;20069;-80
2023/11/03 10:23:53;;;;;;;3.17;0.90;;;;;;;10.86;69.75;97799.13;5026812;28;20065;-77
2023/11/03 10:26:20;;;;;;;5.88;1.17;;;;;;;10.92;69.87;97806.66;5042231;28;20047;-80
2023/11/03 10:28:48;;;;;;;3.58;1.00;;;;;;;10.89;69.71;97812.06;5041947;28;20136;-78
2023/11/03 10:31:15;;;;;;;12.07;1.00;;;;;;;10.97;69.85;97806.41;5046768;28;20052;-78
2023/11/03 10:33:43;;;;;;;5.38;1.80;;;;;;;10.98;70.11;97814.16;5032833;28;20068;-79
2023/11/03 10:36:12;;;;;;;6.70;0.98;;;;;;;10.98;70.17;97808.94;5043896;28;20049;-80
2023/11/03 10:38:38;;;;;;;6.18;1.83;;;;;;;11.07;69.96;97823.28;5025910;28;20053;-81
2023/11/03 10:41:08;;;;;;;4.43;1.10;;;;;;;11.07;70.19;97808.41;5026310;28;20084;-78
2023/11/03 10:43:41;;;;;;;3.75;0.90;;;;;;;11.21;69.71;97818.09;5027022;28;20814;-79
2023/11/03 10:46:41;;;;;;;2.17;0.80;;;;;;;11.20;69.60;97808.56;5030305;28;20423;-77
2023/11/03 10:49:30;;;;;;;2.50;0.80;;;;;;;11.38;68.99;97821.50;5020042;28;20426;-77
2023/11/03 10:52:29;;;;;;;4.35;1.20;;;;;;;11.43;68.64;97824.69;5031053;28;20354;-82
2023/11/03 10:55:09;;;;;;;5.82;1.08;;;;;;;11.51;68.77;97819.03;5047145;28;20122;-81
2023/11/03 10:57:38;;;;;;;3.53;0.98;;;;;;;11.51;68.29;97806.78;5041851;28;20052;-78
2023/11/03 11:00:26;;;;;;;5.60;0.93;;;;;;;11.56;68.06;97817.84;5048041;28;20484;-81
2023/11/03 11:03:11;;;;;;;6.35;0.93;;;;;;;11.58;67.94;97821.19;5043603;28;20095;-77
2023/11/03 11:06:14;;;;;;;7.18;1.02;;;;;;;11.73;67.70;97822.09;5040036;28;20056;-78
2023/11/03 11:08:42;;;;;;;3.50;1.10;;;;;;;11.75;68.05;97835.91;5040462;28;20151;-77
2023/11/03 11:11:10;;;;;;;5.72;1.10;;;;;;;11.65;68.58;97826.91;5025605;28;20411;-81
2023/11/03 11:13:41;;;;;;;5.32;0.88;;;;;;;11.62;68.38;97814.00;5040811;28;20041;-80
2023/11/03 11:16:10;;;;;;;5.38;0.85;;;;;;;11.57;67.89;97818.66;5038663;28;20059;-78
2023/11/03 11:18:54;;;;;;;1.83;0.77;;;;;;;11.62;68.03;97824.47;5046635;28;20055;-77
2023/11/03 11:21:30;;;;;;;7.53;1.05;;;;;;;11.59;68.45;97812.41;5046042;28;20159;-77
2023/11/03 11:23:59;;;;;;;3.65;0.80;;;;;;;11.61;68.45;97817.53;5045648;28;20064;-79
2023/11/03 11:26:26;;;;;;;6.68;0.93;;;;;;;11.65;68.46;97820.84;5045053;28;20803;-76
2023/11/03 11:28:53;;;;;;;5.15;1.48;;;;;;;11.59;68.35;97816.81;5044187;28;20428;-77
2023/11/03 11:31:24;;;;;;;4.53;0.90;;;;;;;11.75;68.24;97819.38;5031548;28;20049;-80
2023/11/03 11:34:15;;;;;;;4.15;1.27;;;;;;;11.81;67.99;97829.50;5041940;28;20565;-78
2023/11/03 11:36:42;;;;;;;3.83;0.90;;;;;;;11.89;67.69;97823.78;5043373;28;20041;-81
2023/11/03 11:39:12;;;;;;;2.72;1.15;;;;;;;11.91;67.81;97838.50;5034324;28;20055;-78
2023/11/03 11:42:01;;;;;;;3.53;0.95;;;;;;;12.00;67.54;97852.00;5048349;28;20675;-79
2023/11/03 11:44:30;;;;;;;2.75;1.50;;;;;;;12.03;67.23;97850.06;5055913;28;20112;-77